createdAt,value
2023-01-09T00:00:57.011Z,1.10
2023-01-09T00:01:57.281Z,1.10
2023-01-09T00:02:57.029Z,1.10
2023-01-09T00:03:57.810Z,1.10
2023-01-09T00:04:56.938Z,1.00
2023-01-09T00:05:57.841Z,0.90
2023-01-09T00:06:57.730Z,0.90
2023-01-09T00:07:57.919Z,1.00
2023-01-09T00:08:57.820Z,0.90
2023-01-09T00:09:57.720Z,0.90
2023-01-09T00:10:56.930Z,0.90
2023-01-09T00:11:57.152Z,0.80
2023-01-09T00:12:57.369Z,0.80
2023-01-09T00:13:57.479Z,0.70
2023-01-09T00:14:56.791Z,0.80
2023-01-09T00:15:56.827Z,0.70
2023-01-09T00:16:56.781Z,0.70
2023-01-09T00:17:57.067Z,0.60
2023-01-09T00:18:56.800Z,0.60
2023-01-09T00:19:56.742Z,0.70
2023-01-09T00:20:56.721Z,0.70
2023-01-09T00:21:56.772Z,0.80
2023-01-09T00:22:56.703Z,0.80
2023-01-09T00:23:56.731Z,0.70
2023-01-09T00:24:56.688Z,0.90
2023-01-09T00:25:56.704Z,1.00
2023-01-09T00:26:56.694Z,0.70
2023-01-09T00:27:56.653Z,0.80
2023-01-09T00:28:56.633Z,0.90
2023-01-09T00:29:56.647Z,0.70
2023-01-09T00:30:56.671Z,0.70
2023-01-09T00:31:56.665Z,0.70
2023-01-09T00:32:56.587Z,1.20
2023-01-09T00:33:56.583Z,0.60
2023-01-09T00:34:56.557Z,0.70
2023-01-09T00:35:56.604Z,0.50
2023-01-09T00:36:56.545Z,0.70
2023-01-09T00:37:56.592Z,0.80
2023-01-09T00:38:56.549Z,0.80
2023-01-09T00:39:56.538Z,0.70
2023-01-09T00:40:56.498Z,0.70
2023-01-09T00:41:56.506Z,0.50
2023-01-09T00:42:56.467Z,0.70
2023-01-09T00:43:56.492Z,0.50
2023-01-09T00:44:56.477Z,0.90
2023-01-09T00:45:56.494Z,0.70
2023-01-09T00:46:56.480Z,1.10
2023-01-09T00:47:56.444Z,0.50
2023-01-09T00:48:56.394Z,0.70
2023-01-09T00:49:56.424Z,1.10
2023-01-09T00:50:56.396Z,1.40
2023-01-09T00:51:56.394Z,1.60
2023-01-09T00:52:56.380Z,1.40
2023-01-09T00:53:56.341Z,1.10
2023-01-09T00:54:56.317Z,1.10
2023-01-09T00:55:56.356Z,1.70
2023-01-09T00:56:56.288Z,1.30
2023-01-09T00:57:56.325Z,1.20
2023-01-09T00:58:56.308Z,2.00
2023-01-09T00:59:56.273Z,1.80
2023-01-09T01:00:56.345Z,1.40
2023-01-09T01:01:56.454Z,1.30
2023-01-09T01:02:56.275Z,1.20
2023-01-09T01:03:56.226Z,1.20
2023-01-09T01:04:56.213Z,2.30
2023-01-09T01:05:56.235Z,2.50
2023-01-09T01:06:57.910Z,1.40
2023-01-09T01:07:56.211Z,0.90
2023-01-09T01:08:56.159Z,0.70
2023-01-09T01:09:56.179Z,0.60
2023-01-09T01:10:56.155Z,1.00
2023-01-09T01:11:56.168Z,0.90
2023-01-09T01:12:56.131Z,1.00
2023-01-09T01:13:56.116Z,0.90
2023-01-09T01:14:56.096Z,1.90
2023-01-09T01:15:56.135Z,1.90
2023-01-09T01:16:56.146Z,1.00
2023-01-09T01:17:56.082Z,0.90
2023-01-09T01:18:56.082Z,0.80
2023-01-09T01:19:56.071Z,1.50
2023-01-09T01:20:56.063Z,1.30
2023-01-09T01:21:56.039Z,0.90
2023-01-09T01:22:56.046Z,1.30
2023-01-09T01:23:55.998Z,1.60
2023-01-09T01:24:55.992Z,1.70
2023-01-09T01:25:55.993Z,2.20
2023-01-09T01:26:55.983Z,2.10
2023-01-09T01:27:56.017Z,1.80
2023-01-09T01:28:55.940Z,1.90
2023-01-09T01:29:55.954Z,1.40
2023-01-09T01:30:55.986Z,1.30
2023-01-09T01:31:55.905Z,1.40
2023-01-09T01:32:55.909Z,2.00
2023-01-09T01:33:55.899Z,1.90
2023-01-09T01:34:55.845Z,1.70
2023-01-09T01:35:55.892Z,1.40
2023-01-09T01:36:55.852Z,1.30
2023-01-09T01:37:55.825Z,1.30
2023-01-09T01:38:55.826Z,1.40
2023-01-09T01:39:55.797Z,1.20
2023-01-09T01:40:55.825Z,1.20
2023-01-09T01:41:55.827Z,1.10
2023-01-09T01:42:55.761Z,1.00
2023-01-09T01:43:55.784Z,1.20
2023-01-09T01:44:55.737Z,1.30
2023-01-09T01:45:55.838Z,1.50
2023-01-09T01:46:55.731Z,1.20
2023-01-09T01:47:55.718Z,1.10
2023-01-09T01:48:55.681Z,1.10
2023-01-09T01:49:55.714Z,1.50
2023-01-09T01:50:55.689Z,1.00
2023-01-09T01:51:55.676Z,0.90
2023-01-09T01:52:55.637Z,0.70
2023-01-09T01:53:55.655Z,0.70
2023-01-09T01:54:55.636Z,0.70
2023-01-09T01:55:55.608Z,0.50
2023-01-09T01:56:55.628Z,0.50
2023-01-09T01:57:55.626Z,0.60
2023-01-09T01:58:55.592Z,0.50
2023-01-09T01:59:55.608Z,0.50
2023-01-09T02:00:55.626Z,0.50
2023-01-09T02:01:55.727Z,0.60
2023-01-09T02:02:55.592Z,0.60
2023-01-09T02:03:55.552Z,0.50
2023-01-09T02:04:55.525Z,0.60
2023-01-09T02:05:55.527Z,0.50
2023-01-09T02:06:55.498Z,0.60
2023-01-09T02:07:55.476Z,0.50
2023-01-09T02:08:55.467Z,0.50
2023-01-09T02:09:55.628Z,0.60
2023-01-09T02:10:55.425Z,0.50
2023-01-09T02:11:55.457Z,0.50
2023-01-09T02:12:55.418Z,0.40
2023-01-09T02:13:55.402Z,0.50
2023-01-09T02:14:55.401Z,0.50
2023-01-09T02:15:55.480Z,0.40
2023-01-09T02:16:55.380Z,0.50
2023-01-09T02:17:55.409Z,0.40
2023-01-09T02:18:55.341Z,0.50
2023-01-09T02:19:55.357Z,0.50
2023-01-09T02:20:55.316Z,0.50
2023-01-09T02:21:55.314Z,0.50
2023-01-09T02:22:55.334Z,0.40
2023-01-09T02:23:55.302Z,0.50
2023-01-09T02:24:55.282Z,0.50
2023-01-09T02:25:55.301Z,0.70
2023-01-09T02:26:55.235Z,0.60
2023-01-09T02:27:55.245Z,0.50
2023-01-09T02:28:55.263Z,0.60
2023-01-09T02:29:55.218Z,0.50
2023-01-09T02:30:55.197Z,0.60
2023-01-09T02:31:55.272Z,0.60
2023-01-09T02:32:55.205Z,0.50
2023-01-09T02:33:55.241Z,0.40
2023-01-09T02:34:55.179Z,0.50
2023-01-09T02:35:55.179Z,0.70
2023-01-09T02:36:55.131Z,0.40
2023-01-09T02:37:55.173Z,0.60
2023-01-09T02:38:55.112Z,0.50
2023-01-09T02:39:55.101Z,0.40
2023-01-09T02:40:55.078Z,0.60
2023-01-09T02:41:55.116Z,0.60
2023-01-09T02:42:55.086Z,0.60
2023-01-09T02:43:55.106Z,0.50
2023-01-09T02:44:55.056Z,0.50
2023-01-09T02:45:55.083Z,0.40
2023-01-09T02:46:55.037Z,0.50
2023-01-09T02:47:55.026Z,0.60
2023-01-09T02:48:55.020Z,0.60
2023-01-09T02:49:55.015Z,0.60
2023-01-09T02:50:54.988Z,0.60
2023-01-09T02:51:54.962Z,0.60
2023-01-09T02:52:54.982Z,0.60
2023-01-09T02:53:54.941Z,0.70
2023-01-09T02:54:54.914Z,0.60
2023-01-09T02:55:54.956Z,0.80
2023-01-09T02:56:54.901Z,0.60
2023-01-09T02:57:54.894Z,0.60
2023-01-09T02:58:54.884Z,0.80
2023-01-09T02:59:54.901Z,0.70
2023-01-09T03:00:54.981Z,0.80
2023-01-09T03:01:54.918Z,0.90
2023-01-09T03:02:54.870Z,0.70
2023-01-09T03:03:54.854Z,0.70
2023-01-09T03:04:55.040Z,0.90
2023-01-09T03:05:54.809Z,0.70
2023-01-09T03:06:54.807Z,0.90
2023-01-09T03:07:54.808Z,0.70
2023-01-09T03:08:54.794Z,0.80
2023-01-09T03:09:54.777Z,0.60
2023-01-09T03:10:54.777Z,0.70
2023-01-09T03:11:54.760Z,0.70
2023-01-09T03:12:54.712Z,0.80
2023-01-09T03:13:54.775Z,0.60
2023-01-09T03:14:54.855Z,0.80
2023-01-09T03:15:54.716Z,0.70
2023-01-09T03:16:54.692Z,0.70
2023-01-09T03:17:54.670Z,0.80
2023-01-09T03:18:54.645Z,0.70
2023-01-09T03:19:54.681Z,0.80
2023-01-09T03:20:54.622Z,0.70
2023-01-09T03:21:54.617Z,0.80
2023-01-09T03:22:54.602Z,0.90
2023-01-09T03:23:54.597Z,0.80
2023-01-09T03:24:54.804Z,0.90
2023-01-09T03:25:54.576Z,0.90
2023-01-09T03:26:54.547Z,0.90
2023-01-09T03:27:54.583Z,0.80
2023-01-09T03:28:54.554Z,0.70
2023-01-09T03:29:54.538Z,0.90
2023-01-09T03:30:54.531Z,0.90
2023-01-09T03:31:54.531Z,0.80
2023-01-09T03:32:54.546Z,0.70
2023-01-09T03:33:54.481Z,0.70
2023-01-09T03:34:54.458Z,0.90
2023-01-09T03:35:54.459Z,0.80
2023-01-09T03:36:54.477Z,1.00
2023-01-09T03:37:54.466Z,1.00
2023-01-09T03:38:54.486Z,0.80
2023-01-09T03:39:54.434Z,1.00
2023-01-09T03:40:54.411Z,1.20
2023-01-09T03:41:54.399Z,0.90
2023-01-09T03:42:54.378Z,1.00
2023-01-09T03:43:54.427Z,1.20
2023-01-09T03:44:54.378Z,1.00
2023-01-09T03:45:54.456Z,1.00
2023-01-09T03:46:54.321Z,1.10
2023-01-09T03:47:54.354Z,1.30
2023-01-09T03:48:54.305Z,1.20
2023-01-09T03:49:54.535Z,1.00
2023-01-09T03:50:54.275Z,1.10
2023-01-09T03:51:54.284Z,1.30
2023-01-09T03:52:54.259Z,1.20
2023-01-09T03:53:54.253Z,1.00
2023-01-09T03:54:54.317Z,1.30
2023-01-09T03:55:54.234Z,1.20
2023-01-09T03:56:54.231Z,1.10
2023-01-09T03:57:54.232Z,1.10
2023-01-09T03:58:54.188Z,1.10
2023-01-09T03:59:54.198Z,1.30
2023-01-09T04:00:54.273Z,1.10
2023-01-09T04:01:54.263Z,1.20
2023-01-09T04:02:54.172Z,1.40
2023-01-09T04:03:54.274Z,1.30
2023-01-09T04:04:54.152Z,1.10
2023-01-09T04:05:54.125Z,1.10
2023-01-09T04:06:54.131Z,1.10
2023-01-09T04:07:54.107Z,1.20
2023-01-09T04:08:54.078Z,0.90
2023-01-09T04:09:54.120Z,1.10
2023-01-09T04:10:54.053Z,1.10
2023-01-09T04:11:54.036Z,1.10
2023-01-09T04:12:54.035Z,1.20
2023-01-09T04:13:54.019Z,1.30
2023-01-09T04:14:53.998Z,1.10
2023-01-09T04:15:54.034Z,1.20
2023-01-09T04:16:53.996Z,1.20
2023-01-09T04:17:53.969Z,1.20
2023-01-09T04:18:53.953Z,1.20
2023-01-09T04:19:54.005Z,1.10
2023-01-09T04:20:55.368Z,1.00
2023-01-09T04:21:53.966Z,0.90
2023-01-09T04:22:53.899Z,1.20
2023-01-09T04:23:53.925Z,1.10
2023-01-09T04:24:53.882Z,1.30
2023-01-09T04:25:53.885Z,1.00
2023-01-09T04:26:53.891Z,1.20
2023-01-09T04:27:53.886Z,1.20
2023-01-09T04:28:53.911Z,0.80
2023-01-09T04:29:53.929Z,1.10
2023-01-09T04:30:53.847Z,1.60
2023-01-09T04:31:53.866Z,1.20
2023-01-09T04:32:53.826Z,0.90
2023-01-09T04:33:53.820Z,1.00
2023-01-09T04:34:53.784Z,1.10
2023-01-09T04:35:53.835Z,1.10
2023-01-09T04:36:53.752Z,1.10
2023-01-09T04:37:53.749Z,1.00
2023-01-09T04:38:53.722Z,1.00
2023-01-09T04:39:53.728Z,1.20
2023-01-09T04:40:53.880Z,1.00
2023-01-09T04:41:53.684Z,1.30
2023-01-09T04:42:53.683Z,1.10
2023-01-09T04:43:53.653Z,1.20
2023-01-09T04:44:53.685Z,1.10
2023-01-09T04:45:53.698Z,1.00
2023-01-09T04:46:53.660Z,1.00
2023-01-09T04:47:53.631Z,1.30
2023-01-09T04:48:53.648Z,1.10
2023-01-09T04:49:53.584Z,1.30
2023-01-09T04:50:53.644Z,1.10
2023-01-09T04:51:53.583Z,1.00
2023-01-09T04:52:53.565Z,1.00
2023-01-09T04:53:53.567Z,1.10
2023-01-09T04:54:54.967Z,1.60
2023-01-09T04:55:53.543Z,1.30
2023-01-09T04:56:53.524Z,1.20
2023-01-09T04:57:53.486Z,1.50
2023-01-09T04:58:53.498Z,1.90
2023-01-09T04:59:54.327Z,2.10
2023-01-09T05:00:53.655Z,1.90
2023-01-09T05:01:53.519Z,2.10
2023-01-09T05:02:53.473Z,1.80
2023-01-09T05:03:53.497Z,1.80
2023-01-09T05:04:53.474Z,1.80
2023-01-09T05:05:53.425Z,2.00
2023-01-09T05:06:53.398Z,2.30
2023-01-09T05:07:53.403Z,2.50
2023-01-09T05:08:53.378Z,2.20
2023-01-09T05:09:55.081Z,3.10
2023-01-09T05:10:53.377Z,3.20
2023-01-09T05:11:53.359Z,2.70
2023-01-09T05:12:53.339Z,2.80
2023-01-09T05:13:53.334Z,2.40
2023-01-09T05:14:53.312Z,2.40
2023-01-09T05:15:53.309Z,2.50
2023-01-09T05:16:53.353Z,2.70
2023-01-09T05:17:53.287Z,2.90
2023-01-09T05:18:53.288Z,2.70
2023-01-09T05:19:53.244Z,3.00
2023-01-09T05:20:53.296Z,3.10
2023-01-09T05:21:53.217Z,2.10
2023-01-09T05:22:53.246Z,3.10
2023-01-09T05:23:53.238Z,3.00
2023-01-09T05:24:53.225Z,2.90
2023-01-09T05:25:53.180Z,2.40
2023-01-09T05:26:53.202Z,2.90
2023-01-09T05:27:53.168Z,2.30
2023-01-09T05:28:53.167Z,3.00
2023-01-09T05:29:53.123Z,2.40
2023-01-09T05:30:53.140Z,2.70
2023-01-09T05:31:53.177Z,1.80
2023-01-09T05:32:53.103Z,1.70
2023-01-09T05:33:53.118Z,1.80
2023-01-09T05:34:53.109Z,1.60
2023-01-09T05:35:53.081Z,1.50
2023-01-09T05:36:54.783Z,1.60
2023-01-09T05:37:53.035Z,2.00
2023-01-09T05:38:53.052Z,1.90
2023-01-09T05:39:53.025Z,2.10
2023-01-09T05:40:53.030Z,1.80
2023-01-09T05:41:53.012Z,1.70
2023-01-09T05:42:53.011Z,2.10
2023-01-09T05:43:52.995Z,1.70
2023-01-09T05:44:52.997Z,1.70
2023-01-09T05:45:52.971Z,1.40
2023-01-09T05:46:52.967Z,1.60
2023-01-09T05:47:52.943Z,1.80
2023-01-09T05:48:52.916Z,1.70
2023-01-09T05:49:52.934Z,1.70
2023-01-09T05:50:52.922Z,1.60
2023-01-09T05:51:52.895Z,1.70
2023-01-09T05:52:52.868Z,1.70
2023-01-09T05:53:52.845Z,1.80
2023-01-09T05:54:52.904Z,1.00
2023-01-09T05:55:52.855Z,1.20
2023-01-09T05:56:52.826Z,1.40
2023-01-09T05:57:52.831Z,1.50
2023-01-09T05:58:52.816Z,1.40
2023-01-09T05:59:52.807Z,1.30
2023-01-09T06:00:52.868Z,1.60
2023-01-09T06:01:52.773Z,1.50
2023-01-09T06:02:52.812Z,1.30
2023-01-09T06:03:52.753Z,1.30
2023-01-09T06:04:52.726Z,1.60
2023-01-09T06:05:52.743Z,1.30
2023-01-09T06:06:52.735Z,1.20
2023-01-09T06:07:52.704Z,1.40
2023-01-09T06:08:52.706Z,1.40
2023-01-09T06:09:52.684Z,1.70
2023-01-09T06:10:52.698Z,1.60
2023-01-09T06:11:52.641Z,1.90
2023-01-09T06:12:52.664Z,1.30
2023-01-09T06:13:52.677Z,1.40
2023-01-09T06:14:52.651Z,1.40
2023-01-09T06:15:52.670Z,1.20
2023-01-09T06:16:52.615Z,1.60
2023-01-09T06:17:52.603Z,1.40
2023-01-09T06:18:52.570Z,1.10
2023-01-09T06:19:52.561Z,1.40
2023-01-09T06:20:52.570Z,1.00
2023-01-09T06:21:52.518Z,1.40
2023-01-09T06:22:52.577Z,1.40
2023-01-09T06:23:52.517Z,1.10
2023-01-09T06:24:52.526Z,1.20
2023-01-09T06:25:52.470Z,1.30
2023-01-09T06:26:52.496Z,1.20
2023-01-09T06:27:52.498Z,1.20
2023-01-09T06:28:52.455Z,1.10
2023-01-09T06:29:52.431Z,0.90
2023-01-09T06:30:52.535Z,1.10
2023-01-09T06:31:52.437Z,1.00
2023-01-09T06:32:52.479Z,1.10
2023-01-09T06:33:52.398Z,1.00
2023-01-09T06:34:52.383Z,1.50
2023-01-09T06:35:52.353Z,1.50
2023-01-09T06:36:52.370Z,1.70
2023-01-09T06:37:52.332Z,2.40
2023-01-09T06:38:52.371Z,2.90
2023-01-09T06:39:52.344Z,3.30
2023-01-09T06:40:52.331Z,3.10
2023-01-09T06:41:52.317Z,2.20
2023-01-09T06:42:52.310Z,2.30
2023-01-09T06:43:52.269Z,2.00
2023-01-09T06:44:52.321Z,2.30
2023-01-09T06:46:07.028Z,2.50
2023-01-09T06:46:52.262Z,1.80
2023-01-09T06:47:52.220Z,2.70
2023-01-09T06:48:52.250Z,1.90
2023-01-09T06:49:52.254Z,1.50
2023-01-09T06:50:52.219Z,1.40
2023-01-09T06:51:52.187Z,1.20
2023-01-09T06:52:52.199Z,1.60
2023-01-09T06:53:52.158Z,1.50
2023-01-09T06:54:52.197Z,1.40
2023-01-09T06:55:52.147Z,1.40
2023-01-09T06:56:52.263Z,1.30
2023-01-09T06:57:52.096Z,1.60
2023-01-09T06:58:52.152Z,1.60
2023-01-09T06:59:52.078Z,1.30
2023-01-09T07:00:52.084Z,1.50
2023-01-09T07:01:52.224Z,1.70
2023-01-09T07:02:52.093Z,1.30
2023-01-09T07:03:52.124Z,1.40
2023-01-09T07:04:52.066Z,1.40
2023-01-09T07:05:51.999Z,1.30
2023-01-09T07:06:52.046Z,1.30
2023-01-09T07:07:52.038Z,1.30
2023-01-09T07:08:52.038Z,1.30
2023-01-09T07:09:51.972Z,1.20
2023-01-09T07:10:52.045Z,1.30
2023-01-09T07:11:52.090Z,1.30
2023-01-09T07:12:51.966Z,1.00
2023-01-09T07:13:51.942Z,0.90
2023-01-09T07:14:51.915Z,1.00
2023-01-09T07:15:51.905Z,1.10
2023-01-09T07:16:51.938Z,0.80
2023-01-09T07:17:51.896Z,1.10
2023-01-09T07:18:51.874Z,0.90
2023-01-09T07:19:51.864Z,0.90
2023-01-09T07:20:51.861Z,0.80
2023-01-09T07:21:51.844Z,0.90
2023-01-09T07:22:51.846Z,0.80
2023-01-09T07:23:51.818Z,0.90
2023-01-09T07:24:51.811Z,0.90
2023-01-09T07:25:51.770Z,1.00
2023-01-09T07:26:51.984Z,1.00
2023-01-09T07:27:51.751Z,0.80
2023-01-09T07:28:51.781Z,0.80
2023-01-09T07:29:51.733Z,0.90
2023-01-09T07:30:51.753Z,1.10
2023-01-09T07:31:51.733Z,1.10
2023-01-09T07:32:51.754Z,1.00
2023-01-09T07:33:51.709Z,1.00
2023-01-09T07:34:51.792Z,1.10
2023-01-09T07:35:51.696Z,1.10
2023-01-09T07:36:51.717Z,1.00
2023-01-09T07:37:51.660Z,1.10
2023-01-09T07:38:51.706Z,1.20
2023-01-09T07:39:51.636Z,0.90
2023-01-09T07:40:51.636Z,1.20
2023-01-09T07:41:51.613Z,1.00
2023-01-09T07:42:51.609Z,0.90
2023-01-09T07:43:51.615Z,0.90
2023-01-09T07:44:51.567Z,0.70
2023-01-09T07:45:51.549Z,0.80
2023-01-09T07:46:51.581Z,0.90
2023-01-09T07:47:51.591Z,0.90
2023-01-09T07:48:51.552Z,0.80
2023-01-09T07:49:51.529Z,0.80
2023-01-09T07:50:51.542Z,0.80
2023-01-09T07:51:51.493Z,0.90
2023-01-09T07:52:51.525Z,1.00
2023-01-09T07:53:51.447Z,0.90
2023-01-09T07:54:51.484Z,0.90
2023-01-09T07:55:51.451Z,1.00
2023-01-09T07:56:51.477Z,0.90
2023-01-09T07:57:51.421Z,0.80
2023-01-09T07:58:51.673Z,1.00
2023-01-09T07:59:51.368Z,0.80
2023-01-09T08:00:51.483Z,0.80
2023-01-09T08:01:51.483Z,0.90
2023-01-09T08:02:51.422Z,0.90
2023-01-09T08:03:51.401Z,0.90
2023-01-09T08:04:51.329Z,0.70
2023-01-09T08:05:51.733Z,0.80
2023-01-09T08:06:51.347Z,0.80
2023-01-09T08:07:51.369Z,0.80
2023-01-09T08:08:51.449Z,0.80
2023-01-09T08:09:51.287Z,0.80
2023-01-09T08:10:51.289Z,0.70
2023-01-09T08:11:51.264Z,0.90
2023-01-09T08:13:12.302Z,0.70
2023-01-09T08:13:51.260Z,1.00
2023-01-09T08:14:51.200Z,0.70
2023-01-09T08:15:51.275Z,0.90
2023-01-09T08:16:51.184Z,1.00
2023-01-09T08:17:51.187Z,0.90
2023-01-09T08:18:51.173Z,0.80
2023-01-09T08:20:05.841Z,0.80
2023-01-09T08:20:51.178Z,0.80
2023-01-09T08:21:51.144Z,0.90
2023-01-09T08:22:51.112Z,0.90
2023-01-09T08:23:51.176Z,0.90
2023-01-09T08:24:51.110Z,0.90
2023-01-09T08:25:51.092Z,0.90
2023-01-09T08:26:51.097Z,0.80
2023-01-09T08:27:51.063Z,1.00
2023-01-09T08:28:51.086Z,1.10
2023-01-09T08:29:51.050Z,1.00
2023-01-09T08:30:51.026Z,0.90
2023-01-09T08:31:51.124Z,0.90
2023-01-09T08:32:51.009Z,0.90
2023-01-09T08:33:51.061Z,0.80
2023-01-09T08:34:51.013Z,1.10
2023-01-09T08:35:51.081Z,1.20
2023-01-09T08:36:50.966Z,1.00
2023-01-09T08:37:50.984Z,1.20
2023-01-09T08:38:50.930Z,1.40
2023-01-09T08:39:50.980Z,1.30
2023-01-09T08:40:50.944Z,1.30
2023-01-09T08:41:50.915Z,1.50
2023-01-09T08:42:50.905Z,1.50
2023-01-09T08:43:50.913Z,2.20
2023-01-09T08:44:50.902Z,2.10
2023-01-09T08:45:50.904Z,1.30
2023-01-09T08:46:50.955Z,1.30
2023-01-09T08:47:50.849Z,0.90
2023-01-09T08:48:50.853Z,1.10
2023-01-09T08:49:50.800Z,1.00
2023-01-09T08:50:50.858Z,1.00
2023-01-09T08:51:50.802Z,1.10
2023-01-09T08:52:50.835Z,1.10
2023-01-09T08:53:50.775Z,0.90
2023-01-09T08:54:50.782Z,1.00
2023-01-09T08:55:50.776Z,0.80
2023-01-09T08:56:50.771Z,1.40
2023-01-09T08:57:50.759Z,1.40
2023-01-09T08:58:50.748Z,1.30
2023-01-09T08:59:50.716Z,1.10
2023-01-09T09:00:50.699Z,0.90
2023-01-09T09:01:50.738Z,0.90
2023-01-09T09:02:50.742Z,1.00
2023-01-09T09:03:50.631Z,1.10
2023-01-09T09:04:50.669Z,1.00
2023-01-09T09:05:50.643Z,1.00
2023-01-09T09:06:50.679Z,1.00
2023-01-09T09:07:50.626Z,0.90
2023-01-09T09:08:50.590Z,1.10
2023-01-09T09:09:50.593Z,1.20
2023-01-09T09:10:50.571Z,1.00
2023-01-09T09:11:50.757Z,1.20
2023-01-09T09:12:50.602Z,1.10
2023-01-09T09:13:50.581Z,1.00
2023-01-09T09:14:50.573Z,1.10
2023-01-09T09:15:50.612Z,1.00
2023-01-09T09:16:50.528Z,1.10
2023-01-09T09:17:50.474Z,1.60
2023-01-09T09:18:50.520Z,1.80
2023-01-09T09:19:50.443Z,1.10
2023-01-09T09:20:50.480Z,1.30
2023-01-09T09:21:50.523Z,1.20
2023-01-09T09:22:50.432Z,1.20
2023-01-09T09:23:50.444Z,1.20
2023-01-09T09:24:50.405Z,1.80
2023-01-09T09:25:50.431Z,1.90
2023-01-09T09:26:50.587Z,1.40
2023-01-09T09:27:50.381Z,1.50
2023-01-09T09:28:50.358Z,1.30
2023-01-09T09:29:50.368Z,1.30
2023-01-09T09:30:50.377Z,1.20
2023-01-09T09:31:50.330Z,1.50
2023-01-09T09:32:50.354Z,1.80
2023-01-09T09:33:50.345Z,1.60
2023-01-09T09:34:50.316Z,1.70
2023-01-09T09:35:50.267Z,2.00
2023-01-09T09:36:50.326Z,1.40
2023-01-09T09:37:50.240Z,1.30
2023-01-09T09:38:50.275Z,1.30
2023-01-09T09:39:50.226Z,1.70
2023-01-09T09:40:51.907Z,1.60
2023-01-09T09:41:50.214Z,1.20
2023-01-09T09:42:50.230Z,1.40
2023-01-09T09:43:50.168Z,1.90
2023-01-09T09:44:53.876Z,1.40
2023-01-09T09:45:50.138Z,1.60
2023-01-09T09:46:50.151Z,1.20
2023-01-09T09:47:50.149Z,1.20
2023-01-09T09:48:50.129Z,1.20
2023-01-09T09:49:50.137Z,1.40
2023-01-09T09:50:50.099Z,1.70
2023-01-09T09:51:50.106Z,1.60
2023-01-09T09:52:50.115Z,2.00
2023-01-09T09:53:50.085Z,2.00
2023-01-09T09:54:50.141Z,2.00
2023-01-09T09:55:50.029Z,1.40
2023-01-09T09:56:50.057Z,1.90
2023-01-09T09:57:50.067Z,1.70
2023-01-09T09:58:50.000Z,1.60
2023-01-09T09:59:49.992Z,1.40
2023-01-09T10:00:50.043Z,1.10
2023-01-09T10:01:49.984Z,1.60
2023-01-09T10:02:50.002Z,1.60
2023-01-09T10:03:49.996Z,1.90
2023-01-09T10:04:49.932Z,1.60
2023-01-09T10:05:49.935Z,1.70
2023-01-09T10:06:50.036Z,1.70
2023-01-09T10:07:49.883Z,1.30
2023-01-09T10:08:49.902Z,1.70
2023-01-09T10:09:56.891Z,1.20
2023-01-09T10:10:49.939Z,1.50
2023-01-09T10:11:49.873Z,1.40
2023-01-09T10:12:49.841Z,1.10
2023-01-09T10:13:49.833Z,1.30
2023-01-09T10:14:49.850Z,1.30
2023-01-09T10:15:49.811Z,1.10
2023-01-09T10:16:50.003Z,1.40
2023-01-09T10:17:49.791Z,1.30
2023-01-09T10:18:49.786Z,1.40
2023-01-09T10:19:49.751Z,1.20
2023-01-09T10:20:49.780Z,1.30
2023-01-09T10:21:49.771Z,1.40
2023-01-09T10:22:49.759Z,1.20
2023-01-09T10:23:49.728Z,1.20
2023-01-09T10:24:49.705Z,1.40
2023-01-09T10:25:49.705Z,1.70
2023-01-09T10:26:49.684Z,1.30
2023-01-09T10:27:49.718Z,1.40
2023-01-09T10:28:49.683Z,1.40
2023-01-09T10:29:49.637Z,1.40
2023-01-09T10:30:49.639Z,1.40
2023-01-09T10:31:49.700Z,1.40
2023-01-09T10:32:49.813Z,1.50
2023-01-09T10:33:49.597Z,1.70
2023-01-09T10:34:49.615Z,1.80
2023-01-09T10:35:49.594Z,1.60
2023-01-09T10:36:49.606Z,1.60
2023-01-09T10:37:49.594Z,1.70
2023-01-09T10:38:49.575Z,1.50
2023-01-09T10:39:49.583Z,1.70
2023-01-09T10:40:49.564Z,1.90
2023-01-09T10:41:49.509Z,1.80
2023-01-09T10:42:49.525Z,1.70
2023-01-09T10:43:49.567Z,1.60
2023-01-09T10:44:49.506Z,1.60
2023-01-09T10:45:49.473Z,2.10
2023-01-09T10:46:49.515Z,1.90
2023-01-09T10:47:49.460Z,2.70
2023-01-09T10:48:49.454Z,2.20
2023-01-09T10:49:49.460Z,2.10
2023-01-09T10:50:49.405Z,2.00
2023-01-09T10:51:49.384Z,1.90
2023-01-09T10:52:49.414Z,1.90
2023-01-09T10:53:49.380Z,1.80
2023-01-09T10:54:49.407Z,2.40
2023-01-09T10:55:49.346Z,1.60
2023-01-09T10:56:49.332Z,1.90
2023-01-09T10:57:49.350Z,1.80
2023-01-09T10:58:49.507Z,1.70
2023-01-09T10:59:49.315Z,2.10
2023-01-09T11:00:49.327Z,2.00
2023-01-09T11:01:49.262Z,1.50
2023-01-09T11:02:49.321Z,2.00
2023-01-09T11:03:49.240Z,1.40
2023-01-09T11:04:49.287Z,1.60
2023-01-09T11:05:49.215Z,1.60
2023-01-09T11:06:49.283Z,1.80
2023-01-09T11:07:49.217Z,1.50
2023-01-09T11:08:49.217Z,1.10
2023-01-09T11:09:49.199Z,1.40
2023-01-09T11:10:49.206Z,1.30
2023-01-09T11:11:52.625Z,1.30
2023-01-09T11:12:49.168Z,1.10
2023-01-09T11:13:49.127Z,0.80
2023-01-09T11:14:49.143Z,1.30
2023-01-09T11:15:49.162Z,1.10
2023-01-09T11:16:49.161Z,1.10
2023-01-09T11:17:49.075Z,1.20
2023-01-09T11:18:49.105Z,1.20
2023-01-09T11:19:49.071Z,1.20
2023-01-09T11:20:49.082Z,1.20
2023-01-09T11:21:49.103Z,1.20
2023-01-09T11:22:49.055Z,1.00
2023-01-09T11:23:55.992Z,0.90
2023-01-09T11:24:49.035Z,1.10
2023-01-09T11:25:48.977Z,0.90
2023-01-09T11:26:49.025Z,0.90
2023-01-09T11:27:49.014Z,0.90
2023-01-09T11:28:49.014Z,0.90
2023-01-09T11:29:48.955Z,0.90
2023-01-09T11:30:48.927Z,0.90
2023-01-09T11:31:48.995Z,1.10
2023-01-09T11:32:48.924Z,1.00
2023-01-09T11:33:48.914Z,1.00
2023-01-09T11:34:48.906Z,1.10
2023-01-09T11:35:48.904Z,1.00
2023-01-09T11:36:48.918Z,0.90
2023-01-09T11:37:48.858Z,1.20
2023-01-09T11:38:48.838Z,0.90
2023-01-09T11:39:48.810Z,1.00
2023-01-09T11:40:48.885Z,1.70
2023-01-09T11:41:49.624Z,1.30
2023-01-09T11:42:48.825Z,1.00
2023-01-09T11:43:48.787Z,1.20
2023-01-09T11:44:48.797Z,0.90
2023-01-09T11:46:00.189Z,0.80
2023-01-09T11:46:49.955Z,1.00
2023-01-09T11:47:48.721Z,1.50
2023-01-09T11:48:48.720Z,1.40
2023-01-09T11:49:51.164Z,1.50
2023-01-09T11:50:48.690Z,1.00
2023-01-09T11:51:48.962Z,1.10
2023-01-09T11:52:48.697Z,1.50
2023-01-09T11:53:48.690Z,1.10
2023-01-09T11:54:48.676Z,1.40
2023-01-09T11:55:48.649Z,1.40
2023-01-09T11:56:48.625Z,1.00
2023-01-09T11:57:48.649Z,1.00
2023-01-09T11:58:48.622Z,0.90
2023-01-09T11:59:48.603Z,1.00
2023-01-09T12:00:48.577Z,1.30
2023-01-09T12:01:48.612Z,1.10
2023-01-09T12:02:48.587Z,1.10
2023-01-09T12:03:48.530Z,1.10
2023-01-09T12:04:48.570Z,1.10
2023-01-09T12:05:48.536Z,1.20
2023-01-09T12:06:48.545Z,1.00
2023-01-09T12:07:48.512Z,1.10
2023-01-09T12:08:48.475Z,1.00
2023-01-09T12:09:48.500Z,1.00
2023-01-09T12:10:48.455Z,0.90
2023-01-09T12:11:48.482Z,1.00
2023-01-09T12:12:48.464Z,1.20
2023-01-09T12:13:48.432Z,1.00
2023-01-09T12:14:48.443Z,1.10
2023-01-09T12:15:48.627Z,1.30
2023-01-09T12:16:48.415Z,1.20
2023-01-09T12:17:48.392Z,1.10
2023-01-09T12:18:48.392Z,1.30
2023-01-09T12:19:48.361Z,1.00
2023-01-09T12:20:48.404Z,1.10
2023-01-09T12:21:48.322Z,1.20
2023-01-09T12:22:48.346Z,1.10
2023-01-09T12:23:48.296Z,1.20
2023-01-09T12:24:48.291Z,1.00
2023-01-09T12:25:48.311Z,1.30
2023-01-09T12:26:48.299Z,1.30
2023-01-09T12:27:48.276Z,0.90
2023-01-09T12:28:48.249Z,1.10
2023-01-09T12:29:48.255Z,1.10
2023-01-09T12:30:48.307Z,1.30
2023-01-09T12:31:48.298Z,1.00
2023-01-09T12:32:48.199Z,0.90
2023-01-09T12:33:48.173Z,1.10
2023-01-09T12:34:48.200Z,1.00
2023-01-09T12:35:48.147Z,1.30
2023-01-09T12:36:48.233Z,1.10
2023-01-09T12:37:48.160Z,1.10
2023-01-09T12:38:48.175Z,1.40
2023-01-09T12:39:48.121Z,1.60
2023-01-09T12:40:48.205Z,1.10
2023-01-09T12:41:48.081Z,2.50
2023-01-09T12:42:48.082Z,1.00
2023-01-09T12:43:48.103Z,2.40
2023-01-09T12:44:48.053Z,1.50
2023-01-09T12:45:48.129Z,1.60
2023-01-09T12:46:48.068Z,1.20
2023-01-09T12:47:48.009Z,3.20
2023-01-09T12:48:48.032Z,1.20
2023-01-09T12:49:48.054Z,1.10
2023-01-09T12:50:47.987Z,1.30
2023-01-09T12:51:47.953Z,1.10
2023-01-09T12:52:48.026Z,1.80
2023-01-09T12:53:47.960Z,1.10
2023-01-09T12:54:54.615Z,1.10
2023-01-09T12:55:47.907Z,0.90
2023-01-09T12:56:47.944Z,1.00
2023-01-09T12:57:47.947Z,1.10
2023-01-09T12:58:47.932Z,1.10
2023-01-09T12:59:47.875Z,0.90
2023-01-09T13:00:47.916Z,1.10
2023-01-09T13:01:47.929Z,1.10
2023-01-09T13:02:47.830Z,0.90
2023-01-09T13:03:47.889Z,1.00
2023-01-09T13:04:47.900Z,0.90
2023-01-09T13:05:47.909Z,1.00
2023-01-09T13:06:48.724Z,0.90
2023-01-09T13:07:47.830Z,2.90
2023-01-09T13:08:47.762Z,1.40
2023-01-09T13:09:47.793Z,1.00
2023-01-09T13:10:47.763Z,0.90
2023-01-09T13:11:47.781Z,0.90
2023-01-09T13:12:47.716Z,0.80
2023-01-09T13:13:47.707Z,1.10
2023-01-09T13:14:47.865Z,1.00
2023-01-09T13:15:47.727Z,0.90
2023-01-09T13:16:47.718Z,1.10
2023-01-09T13:17:47.711Z,0.90
2023-01-09T13:18:47.686Z,1.20